sensor_id;sensor_type;location;lat;lon;timestamp;P1;durP1;ratioP1;P2;durP2;ratioP2
15624;SDS011;7912;51.376;6.126;2022-11-13T00:01:23;12.83;;;11.50;;
15624;SDS011;7912;51.376;6.126;2022-11-13T00:03:51;14.10;;;12.60;;
15624;SDS011;7912;51.376;6.126;2022-11-13T00:06:19;13.53;;;11.10;;
15624;SDS011;7912;51.376;6.126;2022-11-13T00:08:46;11.27;;;9.70;;
15624;SDS011;7912;51.376;6.126;2022-11-13T00:11:15;9.80;;;8.80;;
15624;SDS011;7912;51.376;6.126;2022-11-13T00:13:46;9.47;;;8.13;;
15624;SDS011;7912;51.376;6.126;2022-11-13T00:16:18;10.27;;;9.07;;
15624;SDS011;7912;51.376;6.126;2022-11-13T00:18:46;8.33;;;7.53;;
15624;SDS011;7912;51.376;6.126;2022-11-13T00:23:44;7.90;;;7.10;;
15624;SDS011;7912;51.376;6.126;2022-11-13T00:28:50;9.07;;;7.67;;
15624;SDS011;7912;51.376;6.126;2022-11-13T00:31:23;6.90;;;6.20;;
15624;SDS011;7912;51.376;6.126;2022-11-13T00:33:51;7.10;;;6.23;;
15624;SDS011;7912;51.376;6.126;2022-11-13T00:36:38;6.87;;;6.17;;
15624;SDS011;7912;51.376;6.126;2022-11-13T00:39:18;7.37;;;6.40;;
15624;SDS011;7912;51.376;6.126;2022-11-13T00:42:12;7.77;;;7.07;;
15624;SDS011;7912;51.376;6.126;2022-11-13T00:44:39;7.47;;;6.77;;
15624;SDS011;7912;51.376;6.126;2022-11-13T00:47:07;7.53;;;6.73;;
15624;SDS011;7912;51.376;6.126;2022-11-13T00:49:34;8.93;;;7.77;;
15624;SDS011;7912;51.376;6.126;2022-11-13T00:52:02;9.80;;;8.43;;
15624;SDS011;7912;51.376;6.126;2022-11-13T00:54:31;9.10;;;8.13;;
15624;SDS011;7912;51.376;6.126;2022-11-13T00:56:58;8.50;;;7.23;;
15624;SDS011;7912;51.376;6.126;2022-11-13T00:59:25;8.43;;;7.57;;
15624;SDS011;7912;51.376;6.126;2022-11-13T01:01:52;10.03;;;8.60;;
15624;SDS011;7912;51.376;6.126;2022-11-13T01:04:20;9.30;;;7.87;;
15624;SDS011;7912;51.376;6.126;2022-11-13T01:06:50;9.63;;;8.00;;
15624;SDS011;7912;51.376;6.126;2022-11-13T01:09:17;7.80;;;7.00;;
15624;SDS011;7912;51.376;6.126;2022-11-13T01:11:45;7.90;;;7.10;;
15624;SDS011;7912;51.376;6.126;2022-11-13T01:14:12;8.27;;;7.10;;
15624;SDS011;7912;51.376;6.126;2022-11-13T01:16:40;7.87;;;6.77;;
15624;SDS011;7912;51.376;6.126;2022-11-13T01:19:07;9.53;;;7.23;;
15624;SDS011;7912;51.376;6.126;2022-11-13T01:21:34;7.73;;;6.93;;
15624;SDS011;7912;51.376;6.126;2022-11-13T01:24:02;7.43;;;6.07;;
15624;SDS011;7912;51.376;6.126;2022-11-13T01:26:29;6.87;;;6.00;;
15624;SDS011;7912;51.376;6.126;2022-11-13T01:28:57;7.87;;;6.50;;
15624;SDS011;7912;51.376;6.126;2022-11-13T01:31:27;7.70;;;7.00;;
15624;SDS011;7912;51.376;6.126;2022-11-13T01:33:57;7.07;;;6.37;;
15624;SDS011;7912;51.376;6.126;2022-11-13T01:36:40;7.10;;;6.43;;
15624;SDS011;7912;51.376;6.126;2022-11-13T01:39:23;6.83;;;6.13;;
15624;SDS011;7912;51.376;6.126;2022-11-13T01:41:51;5.33;;;4.83;;
15624;SDS011;7912;51.376;6.126;2022-11-13T01:44:18;5.73;;;5.10;;
15624;SDS011;7912;51.376;6.126;2022-11-13T01:46:47;6.80;;;6.07;;
15624;SDS011;7912;51.376;6.126;2022-11-13T01:51:59;6.13;;;5.53;;
15624;SDS011;7912;51.376;6.126;2022-11-13T01:54:33;6.50;;;5.90;;
15624;SDS011;7912;51.376;6.126;2022-11-13T01:57:08;6.27;;;5.67;;
15624;SDS011;7912;51.376;6.126;2022-11-13T01:59:38;6.20;;;5.47;;
15624;SDS011;7912;51.376;6.126;2022-11-13T02:02:10;5.80;;;5.20;;
15624;SDS011;7912;51.376;6.126;2022-11-13T02:04:37;6.77;;;6.00;;
15624;SDS011;7912;51.376;6.126;2022-11-13T02:07:06;6.47;;;5.93;;
15624;SDS011;7912;51.376;6.126;2022-11-13T02:09:38;6.50;;;5.90;;
15624;SDS011;7912;51.376;6.126;2022-11-13T02:12:13;5.90;;;5.40;;
15624;SDS011;7912;51.376;6.126;2022-11-13T02:14:48;6.00;;;5.37;;
15624;SDS011;7912;51.376;6.126;2022-11-13T02:17:22;6.73;;;5.50;;
15624;SDS011;7912;51.376;6.126;2022-11-13T02:19:57;5.87;;;5.37;;
15624;SDS011;7912;51.376;6.126;2022-11-13T02:22:38;5.83;;;5.33;;
15624;SDS011;7912;51.376;6.126;2022-11-13T02:25:38;5.53;;;5.03;;
15624;SDS011;7912;51.376;6.126;2022-11-13T02:28:08;6.23;;;5.73;;
15624;SDS011;7912;51.376;6.126;2022-11-13T02:30:36;6.00;;;5.50;;
15624;SDS011;7912;51.376;6.126;2022-11-13T02:35:56;5.33;;;4.90;;
15624;SDS011;7912;51.376;6.126;2022-11-13T02:38:25;6.03;;;5.53;;
15624;SDS011;7912;51.376;6.126;2022-11-13T02:40:53;5.50;;;5.00;;
15624;SDS011;7912;51.376;6.126;2022-11-13T02:43:20;6.23;;;5.63;;
15624;SDS011;7912;51.376;6.126;2022-11-13T02:45:48;5.80;;;5.30;;
15624;SDS011;7912;51.376;6.126;2022-11-13T02:48:16;6.13;;;5.47;;
15624;SDS011;7912;51.376;6.126;2022-11-13T02:50:44;6.27;;;5.67;;
15624;SDS011;7912;51.376;6.126;2022-11-13T02:53:12;5.50;;;5.00;;
15624;SDS011;7912;51.376;6.126;2022-11-13T02:59:06;6.03;;;5.43;;
15624;SDS011;7912;51.376;6.126;2022-11-13T03:02:05;5.97;;;5.37;;
15624;SDS011;7912;51.376;6.126;2022-11-13T03:04:53;6.50;;;5.83;;
15624;SDS011;7912;51.376;6.126;2022-11-13T03:07:39;5.30;;;4.90;;
15624;SDS011;7912;51.376;6.126;2022-11-13T03:10:21;5.57;;;5.07;;
15624;SDS011;7912;51.376;6.126;2022-11-13T03:13:03;5.67;;;5.20;;
15624;SDS011;7912;51.376;6.126;2022-11-13T03:15:55;6.27;;;5.67;;
15624;SDS011;7912;51.376;6.126;2022-11-13T03:19:02;5.33;;;4.87;;
15624;SDS011;7912;51.376;6.126;2022-11-13T03:21:46;4.90;;;4.50;;
15624;SDS011;7912;51.376;6.126;2022-11-13T03:24:35;5.90;;;5.30;;
15624;SDS011;7912;51.376;6.126;2022-11-13T03:27:23;6.80;;;6.20;;
15624;SDS011;7912;51.376;6.126;2022-11-13T03:30:08;5.37;;;4.87;;
15624;SDS011;7912;51.376;6.126;2022-11-13T03:32:57;5.97;;;5.47;;
15624;SDS011;7912;51.376;6.126;2022-11-13T03:35:38;5.77;;;5.17;;
15624;SDS011;7912;51.376;6.126;2022-11-13T03:38:16;5.90;;;5.30;;
15624;SDS011;7912;51.376;6.126;2022-11-13T03:40:58;5.80;;;5.20;;
15624;SDS011;7912;51.376;6.126;2022-11-13T03:43:47;6.10;;;5.60;;
15624;SDS011;7912;51.376;6.126;2022-11-13T03:46:31;5.83;;;5.23;;
15624;SDS011;7912;51.376;6.126;2022-11-13T03:53:11;6.20;;;5.60;;
15624;SDS011;7912;51.376;6.126;2022-11-13T03:55:56;6.53;;;5.87;;
15624;SDS011;7912;51.376;6.126;2022-11-13T03:58:39;6.40;;;5.80;;
15624;SDS011;7912;51.376;6.126;2022-11-13T04:01:31;6.03;;;5.53;;
15624;SDS011;7912;51.376;6.126;2022-11-13T04:04:12;5.60;;;5.10;;
15624;SDS011;7912;51.376;6.126;2022-11-13T04:06:40;5.40;;;4.90;;
15624;SDS011;7912;51.376;6.126;2022-11-13T04:09:08;6.70;;;5.70;;
15624;SDS011;7912;51.376;6.126;2022-11-13T04:11:35;6.37;;;5.77;;
15624;SDS011;7912;51.376;6.126;2022-11-13T04:14:03;6.00;;;5.40;;
15624;SDS011;7912;51.376;6.126;2022-11-13T04:16:31;6.00;;;5.40;;
15624;SDS011;7912;51.376;6.126;2022-11-13T04:18:58;6.00;;;5.40;;
15624;SDS011;7912;51.376;6.126;2022-11-13T04:21:25;6.23;;;5.63;;
15624;SDS011;7912;51.376;6.126;2022-11-13T04:23:53;5.60;;;5.10;;
15624;SDS011;7912;51.376;6.126;2022-11-13T04:26:20;5.70;;;5.20;;
15624;SDS011;7912;51.376;6.126;2022-11-13T04:28:47;5.93;;;5.43;;
15624;SDS011;7912;51.376;6.126;2022-11-13T04:31:15;5.90;;;5.40;;
15624;SDS011;7912;51.376;6.126;2022-11-13T04:33:42;6.43;;;5.57;;
15624;SDS011;7912;51.376;6.126;2022-11-13T04:36:09;6.57;;;5.87;;
15624;SDS011;7912;51.376;6.126;2022-11-13T04:38:37;6.27;;;5.30;;
15624;SDS011;7912;51.376;6.126;2022-11-13T04:41:04;6.40;;;5.77;;
15624;SDS011;7912;51.376;6.126;2022-11-13T04:43:50;6.47;;;5.87;;
15624;SDS011;7912;51.376;6.126;2022-11-13T04:46:17;6.00;;;5.50;;
15624;SDS011;7912;51.376;6.126;2022-11-13T04:48:44;6.33;;;5.73;;
15624;SDS011;7912;51.376;6.126;2022-11-13T04:51:12;6.00;;;5.50;;
15624;SDS011;7912;51.376;6.126;2022-11-13T04:53:39;5.63;;;5.17;;
15624;SDS011;7912;51.376;6.126;2022-11-13T04:56:07;6.67;;;5.60;;
15624;SDS011;7912;51.376;6.126;2022-11-13T04:58:34;5.87;;;4.93;;
15624;SDS011;7912;51.376;6.126;2022-11-13T05:01:01;5.63;;;5.03;;
15624;SDS011;7912;51.376;6.126;2022-11-13T05:03:32;5.53;;;5.10;;
15624;SDS011;7912;51.376;6.126;2022-11-13T05:06:06;5.33;;;4.83;;
15624;SDS011;7912;51.376;6.126;2022-11-13T05:08:36;6.53;;;5.47;;
15624;SDS011;7912;51.376;6.126;2022-11-13T05:11:03;5.17;;;4.77;;
15624;SDS011;7912;51.376;6.126;2022-11-13T05:13:31;5.47;;;4.97;;
15624;SDS011;7912;51.376;6.126;2022-11-13T05:16:08;4.77;;;4.37;;
15624;SDS011;7912;51.376;6.126;2022-11-13T05:18:38;4.93;;;4.53;;
15624;SDS011;7912;51.376;6.126;2022-11-13T05:21:06;5.00;;;4.50;;
15624;SDS011;7912;51.376;6.126;2022-11-13T05:23:35;5.23;;;4.13;;
15624;SDS011;7912;51.376;6.126;2022-11-13T05:26:03;4.67;;;4.23;;
15624;SDS011;7912;51.376;6.126;2022-11-13T05:28:34;4.70;;;4.30;;
15624;SDS011;7912;51.376;6.126;2022-11-13T05:31:06;5.23;;;4.77;;
15624;SDS011;7912;51.376;6.126;2022-11-13T05:33:39;4.80;;;4.40;;
15624;SDS011;7912;51.376;6.126;2022-11-13T05:36:09;4.73;;;4.33;;
15624;SDS011;7912;51.376;6.126;2022-11-13T05:38:39;4.30;;;3.93;;
15624;SDS011;7912;51.376;6.126;2022-11-13T05:41:17;4.57;;;4.17;;
15624;SDS011;7912;51.376;6.126;2022-11-13T05:43:47;5.43;;;4.33;;
15624;SDS011;7912;51.376;6.126;2022-11-13T05:46:21;4.50;;;4.10;;
15624;SDS011;7912;51.376;6.126;2022-11-13T05:48:52;4.13;;;3.73;;
15624;SDS011;7912;51.376;6.126;2022-11-13T05:51:25;4.53;;;4.13;;
15624;SDS011;7912;51.376;6.126;2022-11-13T05:53:59;4.43;;;4.03;;
15624;SDS011;7912;51.376;6.126;2022-11-13T05:56:29;4.47;;;4.07;;
15624;SDS011;7912;51.376;6.126;2022-11-13T05:58:59;4.63;;;4.20;;
15624;SDS011;7912;51.376;6.126;2022-11-13T06:01:29;4.70;;;4.30;;
15624;SDS011;7912;51.376;6.126;2022-11-13T06:04:03;5.00;;;4.47;;
15624;SDS011;7912;51.376;6.126;2022-11-13T06:06:31;5.03;;;4.53;;
15624;SDS011;7912;51.376;6.126;2022-11-13T06:09:00;4.37;;;3.97;;
15624;SDS011;7912;51.376;6.126;2022-11-13T06:11:30;4.13;;;3.80;;
15624;SDS011;7912;51.376;6.126;2022-11-13T06:13:58;4.60;;;4.20;;
15624;SDS011;7912;51.376;6.126;2022-11-13T06:16:27;4.33;;;3.97;;
15624;SDS011;7912;51.376;6.126;2022-11-13T06:19:00;4.10;;;3.80;;
15624;SDS011;7912;51.376;6.126;2022-11-13T06:21:32;4.03;;;3.63;;
15624;SDS011;7912;51.376;6.126;2022-11-13T06:24:02;4.30;;;3.87;;
15624;SDS011;7912;51.376;6.126;2022-11-13T06:26:31;4.43;;;4.00;;
15624;SDS011;7912;51.376;6.126;2022-11-13T06:29:02;4.40;;;4.00;;
15624;SDS011;7912;51.376;6.126;2022-11-13T06:31:33;4.40;;;4.00;;
15624;SDS011;7912;51.376;6.126;2022-11-13T06:34:03;4.47;;;4.07;;
15624;SDS011;7912;51.376;6.126;2022-11-13T06:36:33;3.90;;;3.60;;
15624;SDS011;7912;51.376;6.126;2022-11-13T06:39:06;4.47;;;3.47;;
15624;SDS011;7912;51.376;6.126;2022-11-13T06:41:36;4.13;;;3.73;;
15624;SDS011;7912;51.376;6.126;2022-11-13T06:44:04;4.57;;;4.17;;
15624;SDS011;7912;51.376;6.126;2022-11-13T06:46:32;4.60;;;4.20;;
15624;SDS011;7912;51.376;6.126;2022-11-13T06:48:59;4.30;;;3.90;;
15624;SDS011;7912;51.376;6.126;2022-11-13T06:51:28;4.03;;;3.70;;
15624;SDS011;7912;51.376;6.126;2022-11-13T06:53:56;4.20;;;3.80;;
15624;SDS011;7912;51.376;6.126;2022-11-13T06:56:25;4.03;;;3.43;;
15624;SDS011;7912;51.376;6.126;2022-11-13T06:58:52;4.07;;;3.77;;
15624;SDS011;7912;51.376;6.126;2022-11-13T07:01:23;3.97;;;3.67;;
15624;SDS011;7912;51.376;6.126;2022-11-13T07:03:52;3.63;;;3.33;;
15624;SDS011;7912;51.376;6.126;2022-11-13T07:06:20;4.00;;;3.60;;
15624;SDS011;7912;51.376;6.126;2022-11-13T07:08:49;3.47;;;3.20;;
15624;SDS011;7912;51.376;6.126;2022-11-13T07:11:21;3.57;;;3.27;;
15624;SDS011;7912;51.376;6.126;2022-11-13T07:13:49;4.60;;;4.20;;
15624;SDS011;7912;51.376;6.126;2022-11-13T07:16:17;3.57;;;3.27;;
15624;SDS011;7912;51.376;6.126;2022-11-13T07:18:48;3.67;;;3.37;;
15624;SDS011;7912;51.376;6.126;2022-11-13T07:21:23;3.53;;;3.23;;
15624;SDS011;7912;51.376;6.126;2022-11-13T07:23:50;3.30;;;3.00;;
15624;SDS011;7912;51.376;6.126;2022-11-13T07:26:18;3.43;;;3.13;;
15624;SDS011;7912;51.376;6.126;2022-11-13T07:28:45;3.63;;;3.33;;
15624;SDS011;7912;51.376;6.126;2022-11-13T07:31:15;2.90;;;2.67;;
15624;SDS011;7912;51.376;6.126;2022-11-13T07:33:43;3.30;;;3.00;;
15624;SDS011;7912;51.376;6.126;2022-11-13T07:36:14;3.07;;;2.63;;
15624;SDS011;7912;51.376;6.126;2022-11-13T07:38:41;3.47;;;3.17;;
15624;SDS011;7912;51.376;6.126;2022-11-13T07:41:09;3.27;;;2.77;;
15624;SDS011;7912;51.376;6.126;2022-11-13T07:43:36;2.77;;;2.50;;
15624;SDS011;7912;51.376;6.126;2022-11-13T07:46:04;3.20;;;2.77;;
15624;SDS011;7912;51.376;6.126;2022-11-13T07:48:31;2.77;;;2.57;;
15624;SDS011;7912;51.376;6.126;2022-11-13T07:50:59;2.90;;;2.60;;
15624;SDS011;7912;51.376;6.126;2022-11-13T07:53:28;2.67;;;2.47;;
15624;SDS011;7912;51.376;6.126;2022-11-13T07:55:58;2.40;;;2.20;;
15624;SDS011;7912;51.376;6.126;2022-11-13T07:58:27;2.67;;;2.47;;
15624;SDS011;7912;51.376;6.126;2022-11-13T08:00:59;2.63;;;2.43;;
15624;SDS011;7912;51.376;6.126;2022-11-13T08:03:29;2.60;;;2.40;;
15624;SDS011;7912;51.376;6.126;2022-11-13T08:06:01;3.00;;;2.70;;
15624;SDS011;7912;51.376;6.126;2022-11-13T08:08:31;2.87;;;2.67;;
15624;SDS011;7912;51.376;6.126;2022-11-13T08:11:02;2.60;;;2.40;;
15624;SDS011;7912;51.376;6.126;2022-11-13T08:13:35;2.50;;;2.30;;
15624;SDS011;7912;51.376;6.126;2022-11-13T08:16:03;2.70;;;2.50;;
15624;SDS011;7912;51.376;6.126;2022-11-13T08:18:31;3.03;;;2.37;;
15624;SDS011;7912;51.376;6.126;2022-11-13T08:20:59;2.53;;;2.33;;
15624;SDS011;7912;51.376;6.126;2022-11-13T08:23:29;2.97;;;2.53;;
15624;SDS011;7912;51.376;6.126;2022-11-13T08:25:57;2.80;;;2.40;;
15624;SDS011;7912;51.376;6.126;2022-11-13T08:28:31;3.07;;;2.40;;
15624;SDS011;7912;51.376;6.126;2022-11-13T08:30:59;2.67;;;2.47;;
15624;SDS011;7912;51.376;6.126;2022-11-13T08:33:27;2.50;;;2.30;;
15624;SDS011;7912;51.376;6.126;2022-11-13T08:35:55;2.67;;;2.47;;
15624;SDS011;7912;51.376;6.126;2022-11-13T08:38:25;2.50;;;2.30;;
15624;SDS011;7912;51.376;6.126;2022-11-13T08:40:57;2.77;;;2.57;;
15624;SDS011;7912;51.376;6.126;2022-11-13T08:43:32;2.70;;;2.50;;
15624;SDS011;7912;51.376;6.126;2022-11-13T08:45:59;3.10;;;2.80;;
15624;SDS011;7912;51.376;6.126;2022-11-13T08:48:26;2.50;;;2.30;;
15624;SDS011;7912;51.376;6.126;2022-11-13T08:50:54;3.20;;;2.50;;
15624;SDS011;7912;51.376;6.126;2022-11-13T08:53:23;2.70;;;2.50;;
15624;SDS011;7912;51.376;6.126;2022-11-13T08:55:51;3.37;;;2.63;;
15624;SDS011;7912;51.376;6.126;2022-11-13T08:58:18;3.37;;;3.07;;
15624;SDS011;7912;51.376;6.126;2022-11-13T09:00:46;3.17;;;2.87;;
15624;SDS011;7912;51.376;6.126;2022-11-13T09:03:13;3.67;;;3.20;;
15624;SDS011;7912;51.376;6.126;2022-11-13T09:05:41;3.30;;;3.00;;
15624;SDS011;7912;51.376;6.126;2022-11-13T09:08:08;2.63;;;2.43;;
15624;SDS011;7912;51.376;6.126;2022-11-13T09:10:36;2.57;;;2.37;;
15624;SDS011;7912;51.376;6.126;2022-11-13T09:13:03;2.60;;;2.40;;
15624;SDS011;7912;51.376;6.126;2022-11-13T09:22:04;2.70;;;2.50;;
15624;SDS011;7912;51.376;6.126;2022-11-13T09:24:32;2.73;;;2.50;;
15624;SDS011;7912;51.376;6.126;2022-11-13T09:26:59;2.80;;;2.50;;
15624;SDS011;7912;51.376;6.126;2022-11-13T09:29:27;4.00;;;2.50;;
15624;SDS011;7912;51.376;6.126;2022-11-13T09:31:54;3.13;;;2.80;;
15624;SDS011;7912;51.376;6.126;2022-11-13T09:34:24;2.93;;;2.47;;
15624;SDS011;7912;51.376;6.126;2022-11-13T09:36:53;2.70;;;2.40;;
15624;SDS011;7912;51.376;6.126;2022-11-13T09:39:20;2.93;;;2.63;;
15624;SDS011;7912;51.376;6.126;2022-11-13T09:47:20;2.60;;;2.33;;
15624;SDS011;7912;51.376;6.126;2022-11-13T09:50:19;2.70;;;2.37;;
15624;SDS011;7912;51.376;6.126;2022-11-13T09:52:52;2.50;;;2.30;;
15624;SDS011;7912;51.376;6.126;2022-11-13T09:55:24;2.70;;;2.20;;
15624;SDS011;7912;51.376;6.126;2022-11-13T09:58:18;2.50;;;2.30;;
15624;SDS011;7912;51.376;6.126;2022-11-13T10:01:14;3.13;;;2.20;;
15624;SDS011;7912;51.376;6.126;2022-11-13T10:04:01;2.00;;;1.80;;
15624;SDS011;7912;51.376;6.126;2022-11-13T10:12:53;2.13;;;1.93;;
15624;SDS011;7912;51.376;6.126;2022-11-13T10:16:35;4.93;;;3.80;;
15624;SDS011;7912;51.376;6.126;2022-11-13T10:19:36;2.40;;;2.20;;
15624;SDS011;7912;51.376;6.126;2022-11-13T10:22:15;3.43;;;2.40;;
15624;SDS011;7912;51.376;6.126;2022-11-13T10:25:04;3.00;;;2.70;;
15624;SDS011;7912;51.376;6.126;2022-11-13T10:27:58;2.17;;;1.90;;
15624;SDS011;7912;51.376;6.126;2022-11-13T10:30:48;2.67;;;2.27;;
15624;SDS011;7912;51.376;6.126;2022-11-13T10:33:16;3.40;;;2.90;;
15624;SDS011;7912;51.376;6.126;2022-11-13T10:39:01;3.20;;;2.03;;
15624;SDS011;7912;51.376;6.126;2022-11-13T10:41:44;2.13;;;1.93;;
15624;SDS011;7912;51.376;6.126;2022-11-13T10:47:04;3.53;;;1.90;;
15624;SDS011;7912;51.376;6.126;2022-11-13T10:50:20;2.43;;;1.90;;
15624;SDS011;7912;51.376;6.126;2022-11-13T10:52:54;3.03;;;1.90;;
15624;SDS011;7912;51.376;6.126;2022-11-13T10:55:30;2.07;;;1.87;;
15624;SDS011;7912;51.376;6.126;2022-11-13T10:58:14;2.10;;;2.00;;
15624;SDS011;7912;51.376;6.126;2022-11-13T11:00:45;2.50;;;2.30;;
15624;SDS011;7912;51.376;6.126;2022-11-13T11:03:16;3.40;;;2.10;;
15624;SDS011;7912;51.376;6.126;2022-11-13T11:05:54;1.97;;;1.77;;
15624;SDS011;7912;51.376;6.126;2022-11-13T11:08:30;3.33;;;2.40;;
15624;SDS011;7912;51.376;6.126;2022-11-13T11:11:01;2.80;;;2.00;;
15624;SDS011;7912;51.376;6.126;2022-11-13T11:14:36;2.20;;;2.00;;
15624;SDS011;7912;51.376;6.126;2022-11-13T11:17:07;2.13;;;1.90;;
15624;SDS011;7912;51.376;6.126;2022-11-13T11:19:40;2.10;;;1.90;;
15624;SDS011;7912;51.376;6.126;2022-11-13T11:22:19;2.77;;;2.10;;
15624;SDS011;7912;51.376;6.126;2022-11-13T11:27:34;2.00;;;1.70;;
15624;SDS011;7912;51.376;6.126;2022-11-13T11:30:23;1.70;;;1.60;;
15624;SDS011;7912;51.376;6.126;2022-11-13T11:35:53;2.07;;;1.60;;
15624;SDS011;7912;51.376;6.126;2022-11-13T11:45:03;1.80;;;1.70;;
15624;SDS011;7912;51.376;6.126;2022-11-13T11:47:45;2.20;;;2.00;;
15624;SDS011;7912;51.376;6.126;2022-11-13T11:50:17;2.23;;;1.93;;
15624;SDS011;7912;51.376;6.126;2022-11-13T11:53:19;1.63;;;1.53;;
15624;SDS011;7912;51.376;6.126;2022-11-13T11:56:15;2.13;;;1.67;;
15624;SDS011;7912;51.376;6.126;2022-11-13T12:04:47;57.53;;;14.37;;
15624;SDS011;7912;51.376;6.126;2022-11-13T12:07:51;17.67;;;4.80;;
15624;SDS011;7912;51.376;6.126;2022-11-13T12:18:25;1.60;;;1.50;;
15624;SDS011;7912;51.376;6.126;2022-11-13T12:21:23;2.13;;;1.40;;
15624;SDS011;7912;51.376;6.126;2022-11-13T12:27:03;1.87;;;1.77;;
15624;SDS011;7912;51.376;6.126;2022-11-13T12:33:25;2.53;;;2.17;;
15624;SDS011;7912;51.376;6.126;2022-11-13T12:35:59;2.20;;;2.00;;
15624;SDS011;7912;51.376;6.126;2022-11-13T12:46:50;2.70;;;2.20;;
15624;SDS011;7912;51.376;6.126;2022-11-13T12:54:41;2.00;;;1.80;;
15624;SDS011;7912;51.376;6.126;2022-11-13T12:59:47;2.60;;;2.03;;
15624;SDS011;7912;51.376;6.126;2022-11-13T13:14:15;2.37;;;1.80;;
15624;SDS011;7912;51.376;6.126;2022-11-13T13:16:51;2.10;;;1.70;;
15624;SDS011;7912;51.376;6.126;2022-11-13T13:19:30;3.40;;;2.30;;
15624;SDS011;7912;51.376;6.126;2022-11-13T13:21:58;1.90;;;1.70;;
15624;SDS011;7912;51.376;6.126;2022-11-13T13:26:58;2.10;;;1.90;;
15624;SDS011;7912;51.376;6.126;2022-11-13T13:29:27;2.57;;;2.10;;
15624;SDS011;7912;51.376;6.126;2022-11-13T13:37:42;1.80;;;1.70;;
15624;SDS011;7912;51.376;6.126;2022-11-13T13:49:01;2.07;;;1.87;;
15624;SDS011;7912;51.376;6.126;2022-11-13T13:51:42;1.90;;;1.80;;
15624;SDS011;7912;51.376;6.126;2022-11-13T13:54:21;1.70;;;1.60;;
15624;SDS011;7912;51.376;6.126;2022-11-13T13:56:53;2.23;;;1.80;;
15624;SDS011;7912;51.376;6.126;2022-11-13T13:59:33;1.80;;;1.70;;
15624;SDS011;7912;51.376;6.126;2022-11-13T14:02:03;2.90;;;1.97;;
15624;SDS011;7912;51.376;6.126;2022-11-13T14:04:51;1.80;;;1.70;;
15624;SDS011;7912;51.376;6.126;2022-11-13T14:09:49;1.70;;;1.50;;
15624;SDS011;7912;51.376;6.126;2022-11-13T14:12:30;3.03;;;1.80;;
15624;SDS011;7912;51.376;6.126;2022-11-13T14:14:58;2.30;;;2.10;;
15624;SDS011;7912;51.376;6.126;2022-11-13T14:17:25;3.50;;;3.20;;
15624;SDS011;7912;51.376;6.126;2022-11-13T14:19:54;3.13;;;2.83;;
15624;SDS011;7912;51.376;6.126;2022-11-13T14:22:26;2.80;;;2.60;;
15624;SDS011;7912;51.376;6.126;2022-11-13T14:24:55;4.27;;;3.80;;
15624;SDS011;7912;51.376;6.126;2022-11-13T14:27:26;3.83;;;3.43;;
15624;SDS011;7912;51.376;6.126;2022-11-13T14:29:59;3.37;;;2.50;;
15624;SDS011;7912;51.376;6.126;2022-11-13T14:32:32;2.20;;;2.00;;
15624;SDS011;7912;51.376;6.126;2022-11-13T14:35:19;1.53;;;1.43;;
15624;SDS011;7912;51.376;6.126;2022-11-13T14:37:52;1.80;;;1.70;;
15624;SDS011;7912;51.376;6.126;2022-11-13T14:40:22;1.97;;;1.87;;
15624;SDS011;7912;51.376;6.126;2022-11-13T14:42:57;2.90;;;2.60;;
15624;SDS011;7912;51.376;6.126;2022-11-13T14:45:33;3.17;;;2.87;;
15624;SDS011;7912;51.376;6.126;2022-11-13T14:48:16;2.70;;;2.50;;
15624;SDS011;7912;51.376;6.126;2022-11-13T14:53:55;2.63;;;2.20;;
15624;SDS011;7912;51.376;6.126;2022-11-13T14:56:38;2.10;;;1.90;;
15624;SDS011;7912;51.376;6.126;2022-11-13T14:59:08;3.13;;;2.80;;
15624;SDS011;7912;51.376;6.126;2022-11-13T15:01:54;2.83;;;2.63;;
15624;SDS011;7912;51.376;6.126;2022-11-13T15:04:23;5.93;;;5.20;;
15624;SDS011;7912;51.376;6.126;2022-11-13T15:06:51;7.80;;;5.50;;
15624;SDS011;7912;51.376;6.126;2022-11-13T15:09:22;5.63;;;4.63;;
15624;SDS011;7912;51.376;6.126;2022-11-13T15:11:51;3.40;;;3.10;;
15624;SDS011;7912;51.376;6.126;2022-11-13T15:14:18;3.80;;;3.00;;
15624;SDS011;7912;51.376;6.126;2022-11-13T15:16:47;3.67;;;3.33;;
15624;SDS011;7912;51.376;6.126;2022-11-13T15:22:00;6.43;;;5.43;;
15624;SDS011;7912;51.376;6.126;2022-11-13T15:24:48;6.83;;;4.70;;
15624;SDS011;7912;51.376;6.126;2022-11-13T15:27:15;5.33;;;4.50;;
15624;SDS011;7912;51.376;6.126;2022-11-13T15:29:43;9.03;;;5.50;;
15624;SDS011;7912;51.376;6.126;2022-11-13T15:32:11;6.00;;;5.40;;
15624;SDS011;7912;51.376;6.126;2022-11-13T15:34:41;10.17;;;7.33;;
15624;SDS011;7912;51.376;6.126;2022-11-13T15:37:12;9.83;;;7.80;;
15624;SDS011;7912;51.376;6.126;2022-11-13T15:39:41;8.83;;;7.37;;
15624;SDS011;7912;51.376;6.126;2022-11-13T15:42:10;8.53;;;7.73;;
15624;SDS011;7912;51.376;6.126;2022-11-13T15:44:42;7.93;;;7.00;;
15624;SDS011;7912;51.376;6.126;2022-11-13T15:50:02;9.15;;;8.18;;
15624;SDS011;7912;51.376;6.126;2022-11-13T15:52:41;8.47;;;7.67;;
15624;SDS011;7912;51.376;6.126;2022-11-13T15:55:26;7.07;;;5.70;;
15624;SDS011;7912;51.376;6.126;2022-11-13T15:57:57;6.83;;;5.57;;
15624;SDS011;7912;51.376;6.126;2022-11-13T16:00:28;9.60;;;6.30;;
15624;SDS011;7912;51.376;6.126;2022-11-13T16:02:56;7.07;;;6.37;;
15624;SDS011;7912;51.376;6.126;2022-11-13T16:05:24;6.73;;;6.03;;
15624;SDS011;7912;51.376;6.126;2022-11-13T16:07:55;6.43;;;5.83;;
15624;SDS011;7912;51.376;6.126;2022-11-13T16:10:23;9.67;;;6.43;;
15624;SDS011;7912;51.376;6.126;2022-11-13T16:12:51;7.90;;;6.90;;
15624;SDS011;7912;51.376;6.126;2022-11-13T16:15:18;7.90;;;6.70;;
15624;SDS011;7912;51.376;6.126;2022-11-13T16:17:51;7.67;;;6.87;;
15624;SDS011;7912;51.376;6.126;2022-11-13T16:20:21;7.40;;;6.13;;
15624;SDS011;7912;51.376;6.126;2022-11-13T16:22:49;9.23;;;6.53;;
15624;SDS011;7912;51.376;6.126;2022-11-13T16:25:18;6.90;;;5.97;;
15624;SDS011;7912;51.376;6.126;2022-11-13T16:27:47;8.63;;;6.77;;
15624;SDS011;7912;51.376;6.126;2022-11-13T16:30:17;10.77;;;8.53;;
15624;SDS011;7912;51.376;6.126;2022-11-13T16:32:46;27.60;;;19.40;;
15624;SDS011;7912;51.376;6.126;2022-11-13T16:35:15;15.53;;;12.03;;
15624;SDS011;7912;51.376;6.126;2022-11-13T16:37:44;16.17;;;13.03;;
15624;SDS011;7912;51.376;6.126;2022-11-13T16:40:19;17.50;;;14.20;;
15624;SDS011;7912;51.376;6.126;2022-11-13T16:42:49;16.40;;;13.17;;
15624;SDS011;7912;51.376;6.126;2022-11-13T16:45:17;17.67;;;12.90;;
15624;SDS011;7912;51.376;6.126;2022-11-13T16:47:45;18.63;;;13.73;;
15624;SDS011;7912;51.376;6.126;2022-11-13T16:50:16;18.93;;;13.90;;
15624;SDS011;7912;51.376;6.126;2022-11-13T16:52:49;15.80;;;12.77;;
15624;SDS011;7912;51.376;6.126;2022-11-13T16:55:16;16.00;;;12.33;;
15624;SDS011;7912;51.376;6.126;2022-11-13T16:57:43;17.70;;;13.43;;
15624;SDS011;7912;51.376;6.126;2022-11-13T17:00:12;22.13;;;16.83;;
15624;SDS011;7912;51.376;6.126;2022-11-13T17:02:42;22.60;;;18.40;;
15624;SDS011;7912;51.376;6.126;2022-11-13T17:05:13;21.13;;;15.43;;
15624;SDS011;7912;51.376;6.126;2022-11-13T17:07:41;16.00;;;12.50;;
15624;SDS011;7912;51.376;6.126;2022-11-13T17:10:10;16.00;;;12.60;;
15624;SDS011;7912;51.376;6.126;2022-11-13T17:12:56;16.10;;;12.80;;
15624;SDS011;7912;51.376;6.126;2022-11-13T17:15:24;21.30;;;15.37;;
15624;SDS011;7912;51.376;6.126;2022-11-13T17:17:51;17.83;;;14.07;;
15624;SDS011;7912;51.376;6.126;2022-11-13T17:20:23;20.20;;;15.20;;
15624;SDS011;7912;51.376;6.126;2022-11-13T17:22:51;21.83;;;14.47;;
15624;SDS011;7912;51.376;6.126;2022-11-13T17:25:18;22.07;;;16.07;;
15624;SDS011;7912;51.376;6.126;2022-11-13T17:27:45;24.03;;;18.27;;
15624;SDS011;7912;51.376;6.126;2022-11-13T17:30:13;23.27;;;17.77;;
15624;SDS011;7912;51.376;6.126;2022-11-13T17:32:40;26.00;;;19.03;;
15624;SDS011;7912;51.376;6.126;2022-11-13T17:35:08;25.83;;;18.60;;
15624;SDS011;7912;51.376;6.126;2022-11-13T17:37:39;22.60;;;16.17;;
15624;SDS011;7912;51.376;6.126;2022-11-13T17:40:07;21.37;;;14.47;;
15624;SDS011;7912;51.376;6.126;2022-11-13T17:42:36;17.40;;;12.67;;
15624;SDS011;7912;51.376;6.126;2022-11-13T17:45:03;15.67;;;12.23;;